Time;durP1;ratioP1;P1;durP2;ratioP2;P2;SDS_P1;SDS_P2;PMS_P1;PMS_P2;Temp;Humidity;BMP_temperature;BMP_pressure;BME280_temperature;BME280_humidity;BME280_pressure;Samples;Min_cycle;Max_cycle;Signal;HPM_P1;HPM_P2
2022/01/30 00:01:53;;;;;;;3.00;1.30;;;;;;;;;;4966198;29;20066;-81
2022/01/30 00:04:19;;;;;;;3.92;1.40;;;;;;;;;;4965451;29;20066;-83
2022/01/30 00:06:46;;;;;;;2.88;1.48;;;;;;;;;;4967602;28;20027;-83
2022/01/30 00:09:21;;;;;;;2.90;1.20;;;;;;;;;;4966969;29;20058;-82
2022/01/30 00:11:52;;;;;;;2.35;1.10;;;;;;;;;;5011335;28;20129;-83
2022/01/30 00:14:21;;;;;;;3.45;1.17;;;;;;;;;;5013507;28;20052;-83
2022/01/30 00:16:55;;;;;;;3.17;1.08;;;;;;;;;;5024168;28;20037;-83
2022/01/30 00:19:46;;;;;;;2.83;1.10;;;;;;;;;;5032139;28;20022;-85
2022/01/30 00:24:56;;;;;;;3.08;1.30;;;;;;;;;;5046819;28;20033;-81
2022/01/30 00:27:32;;;;;;;3.10;1.10;;;;;;;;;;5045830;28;20021;-81
2022/01/30 00:29:58;;;;;;;2.55;1.10;;;;;;;;;;5044833;28;20021;-80
2022/01/30 00:32:24;;;;;;;1.92;0.93;;;;;;;;;;5039415;28;20026;-80
2022/01/30 00:34:51;;;;;;;2.85;1.00;;;;;;;;;;5033821;28;20045;-82
2022/01/30 00:37:17;;;;;;;2.75;1.00;;;;;;;;;;5043635;28;20052;-82
2022/01/30 00:39:43;;;;;;;2.50;1.10;;;;;;;;;;5026643;28;20022;-80
2022/01/30 00:42:10;;;;;;;3.38;1.00;;;;;;;;;;5016667;28;20020;-83
2022/01/30 00:44:36;;;;;;;2.92;1.10;;;;;;;;;;5040648;28;20083;-83
2022/01/30 00:47:03;;;;;;;2.33;1.02;;;;;;;;;;5042130;28;20051;-81
2022/01/30 00:49:30;;;;;;;3.00;1.15;;;;;;;;;;5027616;28;20107;-82
2022/01/30 00:51:56;;;;;;;2.50;0.88;;;;;;;;;;5041411;28;20025;-83
2022/01/30 00:54:22;;;;;;;3.50;1.35;;;;;;;;;;5040256;28;20025;-82
2022/01/30 00:56:48;;;;;;;2.70;1.00;;;;;;;;;;5041152;28;20042;-80
2022/01/30 00:59:14;;;;;;;2.95;1.35;;;;;;;;;;5041595;28;20038;-82
2022/01/30 01:01:40;;;;;;;2.60;1.20;;;;;;;;;;5040338;28;20045;-82
2022/01/30 01:04:06;;;;;;;2.45;1.00;;;;;;;;;;5039935;28;20492;-82
2022/01/30 01:06:37;;;;;;;2.47;1.00;;;;;;;;;;5025927;28;20026;-83
2022/01/30 01:09:04;;;;;;;3.08;1.40;;;;;;;;;;5008775;28;20077;-82
2022/01/30 01:20:50;;;;;;;2.70;1.00;;;;;;;;;;5046338;28;20518;-81
2022/01/30 01:25:13;;;;;;;2.95;1.13;;;;;;;;;;5027005;28;20032;-82
2022/01/30 01:27:39;;;;;;;2.88;1.00;;;;;;;;;;5045305;28;20112;-83
2022/01/30 01:30:05;;;;;;;4.07;1.10;;;;;;;;;;5045833;28;20022;-83
2022/01/30 01:32:31;;;;;;;3.00;1.23;;;;;;;;;;5027098;28;20044;-83
2022/01/30 01:34:57;;;;;;;2.17;0.85;;;;;;;;;;5021053;28;20068;-84
2022/01/30 01:37:23;;;;;;;2.17;0.85;;;;;;;;;;5042308;28;20026;-82
2022/01/30 01:39:49;;;;;;;2.13;0.80;;;;;;;;;;5046119;28;20556;-82
2022/01/30 01:42:16;;;;;;;2.72;1.00;;;;;;;;;;5028242;28;20045;-82
2022/01/30 01:44:47;;;;;;;4.15;1.00;;;;;;;;;;5048716;28;20017;-82
2022/01/30 01:47:15;;;;;;;2.45;1.00;;;;;;;;;;5050059;28;20018;-85
2022/01/30 01:49:42;;;;;;;2.47;1.02;;;;;;;;;;5030164;28;20030;-81
2022/01/30 01:52:19;;;;;;;3.22;1.20;;;;;;;;;;5012083;28;20088;-85
2022/01/30 01:54:56;;;;;;;2.65;1.10;;;;;;;;;;5035909;28;20029;-81
2022/01/30 01:57:23;;;;;;;2.60;1.05;;;;;;;;;;5031416;28;20025;-82
2022/01/30 01:59:49;;;;;;;2.80;1.10;;;;;;;;;;5032062;28;20017;-81
2022/01/30 02:02:16;;;;;;;3.30;1.08;;;;;;;;;;5029750;28;20044;-83
2022/01/30 02:04:42;;;;;;;2.17;1.10;;;;;;;;;;5027919;28;20052;-82
2022/01/30 02:09:35;;;;;;;2.72;1.10;;;;;;;;;;5043019;28;20041;-82
2022/01/30 02:12:02;;;;;;;3.40;1.33;;;;;;;;;;5031535;28;20058;-82
2022/01/30 02:14:54;;;;;;;2.95;1.20;;;;;;;;;;5007201;28;20034;-82
2022/01/30 02:25:42;;;;;;;3.30;1.33;;;;;;;;;;5043687;28;20061;-84
2022/01/30 02:28:15;;;;;;;2.92;1.20;;;;;;;;;;5010775;28;20317;-84
2022/01/30 02:30:47;;;;;;;3.17;1.10;;;;;;;;;;5026198;28;20029;-83
2022/01/30 02:33:13;;;;;;;4.65;1.30;;;;;;;;;;5044482;28;20028;-82
2022/01/30 02:35:39;;;;;;;3.40;1.38;;;;;;;;;;5026513;28;20040;-81
2022/01/30 02:38:06;;;;;;;3.78;1.33;;;;;;;;;;5043617;28;20063;-80
2022/01/30 02:40:37;;;;;;;3.47;1.50;;;;;;;;;;5046004;28;20048;-82
2022/01/30 02:43:03;;;;;;;3.13;1.30;;;;;;;;;;5047668;28;20021;-82
2022/01/30 02:45:34;;;;;;;2.58;1.20;;;;;;;;;;5030064;28;20072;-84
2022/01/30 02:48:15;;;;;;;3.45;1.35;;;;;;;;;;5046889;28;20021;-84
2022/01/30 02:53:15;;;;;;;2.80;1.20;;;;;;;;;;5049248;28;20029;-83
2022/01/30 02:55:41;;;;;;;4.00;1.50;;;;;;;;;;5040691;28;20044;-82
2022/01/30 02:58:07;;;;;;;2.67;1.30;;;;;;;;;;5011008;28;20037;-83
2022/01/30 03:00:33;;;;;;;2.90;1.30;;;;;;;;;;5017590;28;20030;-81
2022/01/30 03:02:59;;;;;;;3.10;1.10;;;;;;;;;;5030241;28;20037;-81
2022/01/30 03:05:26;;;;;;;3.05;1.20;;;;;;;;;;5046852;28;20021;-81
2022/01/30 03:07:52;;;;;;;3.17;1.15;;;;;;;;;;5030132;28;20021;-84
2022/01/30 03:10:18;;;;;;;2.88;1.10;;;;;;;;;;5030703;28;20025;-83
2022/01/30 03:12:44;;;;;;;2.60;1.20;;;;;;;;;;5034455;28;20025;-83
2022/01/30 03:15:11;;;;;;;2.60;1.10;;;;;;;;;;5011520;28;20026;-82
2022/01/30 03:17:37;;;;;;;2.78;1.00;;;;;;;;;;5024592;28;20112;-84
2022/01/30 03:20:04;;;;;;;3.08;1.15;;;;;;;;;;5048862;28;20523;-84
2022/01/30 03:22:31;;;;;;;3.03;1.20;;;;;;;;;;5032708;28;20033;-82
2022/01/30 03:24:57;;;;;;;3.50;1.15;;;;;;;;;;5051159;28;20380;-82
2022/01/30 03:27:24;;;;;;;3.30;1.40;;;;;;;;;;5031373;28;20025;-84
2022/01/30 03:30:02;;;;;;;2.92;1.10;;;;;;;;;;5040846;28;20025;-82
2022/01/30 03:32:30;;;;;;;3.40;1.13;;;;;;;;;;5017569;28;20022;-81
2022/01/30 03:34:56;;;;;;;2.53;1.10;;;;;;;;;;5016314;28;20088;-83
2022/01/30 03:37:22;;;;;;;3.00;1.10;;;;;;;;;;5027976;28;20025;-81
2022/01/30 03:39:54;;;;;;;2.78;1.00;;;;;;;;;;5011770;28;20085;-82
2022/01/30 03:42:20;;;;;;;2.63;1.10;;;;;;;;;;5026699;28;20022;-81
2022/01/30 03:44:49;;;;;;;3.75;1.75;;;;;;;;;;5017303;28;20069;-81
2022/01/30 03:47:15;;;;;;;2.95;1.17;;;;;;;;;;5031374;28;20046;-79
2022/01/30 03:49:41;;;;;;;2.63;1.20;;;;;;;;;;5042483;28;20033;-83
2022/01/30 03:52:08;;;;;;;2.53;1.15;;;;;;;;;;5043152;28;20026;-80
2022/01/30 03:54:35;;;;;;;2.78;1.27;;;;;;;;;;5027425;28;20519;-84
2022/01/30 03:57:01;;;;;;;3.17;1.20;;;;;;;;;;5024994;28;20426;-80
2022/01/30 03:59:27;;;;;;;2.90;1.30;;;;;;;;;;5034190;28;20036;-82
2022/01/30 04:01:54;;;;;;;2.22;1.08;;;;;;;;;;5027233;28;20046;-82
2022/01/30 04:04:21;;;;;;;2.28;1.20;;;;;;;;;;5018300;28;20095;-81
2022/01/30 04:06:47;;;;;;;2.47;1.10;;;;;;;;;;5038653;28;20021;-81
2022/01/30 04:09:14;;;;;;;3.05;1.20;;;;;;;;;;5033267;28;20028;-84
2022/01/30 04:11:40;;;;;;;2.55;1.30;;;;;;;;;;5026861;28;20028;-83
2022/01/30 04:14:07;;;;;;;2.40;1.08;;;;;;;;;;5030204;28;20031;-83
2022/01/30 04:16:34;;;;;;;2.58;1.20;;;;;;;;;;5028612;28;20031;-80
2022/01/30 04:19:00;;;;;;;1.88;0.93;;;;;;;;;;5045880;28;20033;-84
2022/01/30 04:21:26;;;;;;;1.77;0.90;;;;;;;;;;5028147;28;20036;-79
2022/01/30 04:23:52;;;;;;;1.58;0.73;;;;;;;;;;5028427;28;20527;-82
2022/01/30 04:26:18;;;;;;;1.67;0.70;;;;;;;;;;5031670;28;20032;-83
2022/01/30 04:28:45;;;;;;;2.33;0.75;;;;;;;;;;5032042;28;20033;-81
2022/01/30 04:31:13;;;;;;;1.67;0.80;;;;;;;;;;5025720;28;20048;-81
2022/01/30 04:33:39;;;;;;;1.30;0.70;;;;;;;;;;5012572;28;20037;-82
2022/01/30 04:36:08;;;;;;;1.20;0.60;;;;;;;;;;5028568;28;20120;-85
2022/01/30 04:38:52;;;;;;;1.27;0.63;;;;;;;;;;5027891;28;20029;-82
2022/01/30 04:41:50;;;;;;;1.52;0.60;;;;;;;;;;5016263;28;20037;-83
2022/01/30 04:57:48;;;;;;;1.13;0.50;;;;;;;;;;5038023;28;20120;-82
2022/01/30 05:00:48;;;;;;;1.58;0.68;;;;;;;;;;5026934;28;20021;-83
2022/01/30 05:03:39;;;;;;;1.30;0.50;;;;;;;;;;5028672;28;20105;-82
2022/01/30 05:06:08;;;;;;;0.95;0.40;;;;;;;;;;5023562;28;20190;-83
2022/01/30 05:08:35;;;;;;;1.67;0.50;;;;;;;;;;5009924;28;20022;-82
2022/01/30 05:11:05;;;;;;;2.10;0.50;;;;;;;;;;5015993;28;20049;-82
2022/01/30 05:13:33;;;;;;;1.95;0.52;;;;;;;;;;5045567;28;20017;-82
2022/01/30 05:15:59;;;;;;;2.30;0.57;;;;;;;;;;5045737;28;20025;-84
2022/01/30 05:18:27;;;;;;;1.15;0.57;;;;;;;;;;5026356;28;20033;-86
2022/01/30 05:20:53;;;;;;;2.45;0.60;;;;;;;;;;5020382;28;20550;-85
2022/01/30 05:23:21;;;;;;;4.35;0.80;;;;;;;;;;5027371;28;20029;-84
2022/01/30 05:25:49;;;;;;;2.95;0.60;;;;;;;;;;5027407;28;20060;-85
2022/01/30 05:28:40;;;;;;;2.13;0.70;;;;;;;;;;5026933;28;20049;-84
2022/01/30 05:31:06;;;;;;;2.60;0.63;;;;;;;;;;5037359;28;20034;-85
2022/01/30 05:33:33;;;;;;;3.90;1.13;;;;;;;;;;5026493;28;20067;-84
2022/01/30 05:36:01;;;;;;;2.22;0.80;;;;;;;;;;5020879;28;20033;-84
2022/01/30 05:38:28;;;;;;;2.60;1.00;;;;;;;;;;5009098;28;20030;-84
2022/01/30 05:40:56;;;;;;;2.63;0.85;;;;;;;;;;5009557;28;20026;-83
2022/01/30 05:43:26;;;;;;;2.67;0.85;;;;;;;;;;5011972;28;20030;-85
2022/01/30 05:46:04;;;;;;;3.05;1.05;;;;;;;;;;5028684;28;20028;-85
2022/01/30 05:51:32;;;;;;;2.97;1.00;;;;;;;;;;5022375;28;20065;-83
2022/01/30 05:56:53;;;;;;;;;;;;;;;;;;;;;
2022/01/30 05:59:19;;;;;;;1.73;0.63;;;;;;;;;;5029469;28;20090;-83
2022/01/30 06:01:46;;;;;;;1.90;0.60;;;;;;;;;;5034992;28;20536;-83
2022/01/30 06:04:12;;;;;;;2.70;0.60;;;;;;;;;;5028989;28;20504;-83
2022/01/30 06:06:47;;;;;;;2.65;0.75;;;;;;;;;;5032351;28;20075;-83
2022/01/30 06:11:43;;;;;;;3.92;1.30;;;;;;;;;;5062577;28;20096;-84
2022/01/30 06:14:09;;;;;;;3.03;1.00;;;;;;;;;;5059817;28;20031;-83
2022/01/30 06:16:35;;;;;;;2.67;0.98;;;;;;;;;;5066390;28;20053;-82
2022/01/30 06:19:02;;;;;;;2.20;0.85;;;;;;;;;;5045576;28;20025;-83
2022/01/30 06:21:29;;;;;;;3.30;1.20;;;;;;;;;;5055852;28;20022;-82
2022/01/30 06:23:55;;;;;;;7.28;1.67;;;;;;;;;;5066192;28;20112;-82
2022/01/30 06:26:21;;;;;;;3.47;1.20;;;;;;;;;;5040292;28;20059;-83
2022/01/30 06:28:47;;;;;;;3.75;1.23;;;;;;;;;;5051233;28;20051;-81
2022/01/30 06:31:13;;;;;;;4.85;1.25;;;;;;;;;;5040943;28;20036;-81
2022/01/30 06:33:39;;;;;;;3.38;1.00;;;;;;;;;;5040793;28;20424;-81
2022/01/30 06:36:07;;;;;;;4.85;1.20;;;;;;;;;;5042326;28;20043;-82
2022/01/30 06:38:33;;;;;;;3.80;1.50;;;;;;;;;;5048150;28;20033;-82
2022/01/30 06:40:59;;;;;;;4.35;1.33;;;;;;;;;;5044272;28;20017;-83
2022/01/30 06:43:25;;;;;;;4.32;1.70;;;;;;;;;;5038370;28;20032;-85
2022/01/30 06:45:51;;;;;;;4.35;1.65;;;;;;;;;;5046031;28;20033;-83
2022/01/30 06:48:18;;;;;;;3.53;1.50;;;;;;;;;;5032994;28;20029;-82
2022/01/30 06:50:44;;;;;;;4.47;1.70;;;;;;;;;;5045463;28;20018;-82
2022/01/30 06:53:10;;;;;;;4.07;1.20;;;;;;;;;;5026122;28;20353;-81
2022/01/30 06:55:42;;;;;;;6.50;1.70;;;;;;;;;;5045249;28;20059;-81
2022/01/30 06:58:08;;;;;;;4.80;1.40;;;;;;;;;;5059208;28;20414;-81
2022/01/30 07:00:34;;;;;;;5.55;1.52;;;;;;;;;;5031660;28;20040;-82
2022/01/30 07:03:00;;;;;;;3.92;1.30;;;;;;;;;;5043245;28;20079;-82
2022/01/30 07:05:26;;;;;;;4.55;1.58;;;;;;;;;;5045098;28;20017;-82
2022/01/30 07:07:53;;;;;;;5.90;1.65;;;;;;;;;;5046724;28;20018;-80
2022/01/30 07:10:21;;;;;;;5.20;1.67;;;;;;;;;;5047935;28;20048;-79
2022/01/30 07:12:47;;;;;;;3.50;1.30;;;;;;;;;;5056522;28;20033;-84
2022/01/30 07:15:14;;;;;;;4.05;1.40;;;;;;;;;;5044277;28;20036;-83
2022/01/30 07:17:40;;;;;;;5.57;1.83;;;;;;;;;;5032976;28;20490;-81
2022/01/30 07:20:07;;;;;;;5.50;1.30;;;;;;;;;;5032128;28;20024;-82
2022/01/30 07:22:35;;;;;;;4.15;1.50;;;;;;;;;;5035841;28;20025;-81
2022/01/30 07:25:02;;;;;;;5.95;1.80;;;;;;;;;;5031532;28;20084;-82
2022/01/30 07:27:28;;;;;;;4.28;1.70;;;;;;;;;;5049070;28;20021;-81
2022/01/30 07:29:54;;;;;;;3.55;1.73;;;;;;;;;;5054178;28;20116;-83
2022/01/30 07:32:20;;;;;;;4.63;1.67;;;;;;;;;;5051501;28;20025;-82
2022/01/30 07:34:50;;;;;;;3.85;1.23;;;;;;;;;;5060387;28;20036;-81
2022/01/30 07:37:17;;;;;;;4.97;1.52;;;;;;;;;;5055841;28;20035;-81
2022/01/30 07:39:43;;;;;;;4.38;1.50;;;;;;;;;;5060633;28;20025;-80
2022/01/30 07:42:09;;;;;;;3.38;1.50;;;;;;;;;;5048962;28;20047;-83
2022/01/30 07:44:36;;;;;;;2.88;1.40;;;;;;;;;;5063038;28;20087;-83
2022/01/30 07:47:02;;;;;;;3.78;1.60;;;;;;;;;;5043230;28;20026;-81
2022/01/30 07:49:28;;;;;;;4.13;1.42;;;;;;;;;;5043605;28;20527;-81
2022/01/30 07:51:54;;;;;;;4.50;1.55;;;;;;;;;;5057136;28;20025;-81
2022/01/30 07:54:21;;;;;;;3.67;1.60;;;;;;;;;;5063281;28;20487;-83
2022/01/30 07:56:47;;;;;;;3.38;1.50;;;;;;;;;;5059355;28;20036;-81
2022/01/30 07:59:13;;;;;;;5.13;1.90;;;;;;;;;;5063040;28;20104;-83
2022/01/30 08:01:39;;;;;;;4.15;1.48;;;;;;;;;;5044449;28;20033;-80
2022/01/30 08:04:07;;;;;;;4.68;1.30;;;;;;;;;;5045725;28;20044;-83
2022/01/30 08:06:33;;;;;;;4.30;1.60;;;;;;;;;;5043912;28;20106;-83
2022/01/30 08:09:00;;;;;;;4.63;1.80;;;;;;;;;;5042178;28;20479;-84
2022/01/30 08:11:26;;;;;;;4.53;1.85;;;;;;;;;;5045103;28;20028;-82
2022/01/30 08:13:52;;;;;;;6.35;1.42;;;;;;;;;;5043517;28;20495;-82
2022/01/30 08:16:20;;;;;;;3.92;1.27;;;;;;;;;;5045302;28;20112;-83
2022/01/30 08:18:46;;;;;;;4.75;1.67;;;;;;;;;;5046163;28;20032;-83
2022/01/30 08:21:13;;;;;;;4.45;1.65;;;;;;;;;;5053083;28;20021;-84
2022/01/30 08:23:39;;;;;;;2.65;1.10;;;;;;;;;;5026805;28;20029;-82
2022/01/30 08:26:05;;;;;;;3.60;1.20;;;;;;;;;;5043904;28;20025;-83
2022/01/30 08:28:32;;;;;;;4.93;1.70;;;;;;;;;;5041275;28;20113;-81
2022/01/30 08:30:58;;;;;;;3.63;1.50;;;;;;;;;;5061753;28;20081;-82
2022/01/30 08:33:25;;;;;;;2.88;1.08;;;;;;;;;;5046326;28;20098;-82
2022/01/30 08:35:51;;;;;;;5.97;1.48;;;;;;;;;;5046248;28;20030;-83
2022/01/30 08:38:18;;;;;;;6.55;1.40;;;;;;;;;;5024978;28;20070;-83
2022/01/30 08:40:48;;;;;;;3.45;1.27;;;;;;;;;;5024944;28;20098;-83
2022/01/30 08:43:14;;;;;;;4.03;1.10;;;;;;;;;;5033397;28;20022;-83
2022/01/30 08:45:41;;;;;;;5.55;1.45;;;;;;;;;;5030824;28;20035;-82
2022/01/30 08:48:08;;;;;;;3.63;1.48;;;;;;;;;;5042127;28;20032;-83
2022/01/30 08:50:34;;;;;;;6.30;1.55;;;;;;;;;;5044083;28;20040;-82
2022/01/30 08:53:00;;;;;;;4.35;1.30;;;;;;;;;;5057577;28;20415;-82
2022/01/30 08:55:29;;;;;;;5.57;1.65;;;;;;;;;;5031616;28;20087;-82
2022/01/30 08:57:55;;;;;;;4.38;1.27;;;;;;;;;;5036854;28;20025;-82
2022/01/30 09:00:22;;;;;;;4.78;1.52;;;;;;;;;;5052961;28;20033;-82
2022/01/30 09:02:48;;;;;;;5.55;1.40;;;;;;;;;;5029271;28;20069;-82
2022/01/30 09:05:15;;;;;;;4.07;1.50;;;;;;;;;;5027648;28;20053;-83
2022/01/30 09:07:41;;;;;;;4.18;1.40;;;;;;;;;;5050656;28;20537;-83
2022/01/30 09:10:09;;;;;;;4.25;1.30;;;;;;;;;;5049215;28;20219;-82
2022/01/30 09:12:35;;;;;;;4.43;1.20;;;;;;;;;;5028417;28;20068;-82
2022/01/30 09:15:03;;;;;;;5.88;1.80;;;;;;;;;;5057736;28;20047;-80
2022/01/30 09:17:32;;;;;;;6.63;2.67;;;;;;;;;;5060280;28;20047;-83
2022/01/30 09:19:58;;;;;;;7.20;2.85;;;;;;;;;;5045386;28;20048;-81
2022/01/30 09:22:24;;;;;;;5.97;2.38;;;;;;;;;;5046096;28;20027;-84
2022/01/30 09:24:51;;;;;;;6.43;1.77;;;;;;;;;;5064286;28;20028;-82
2022/01/30 09:27:17;;;;;;;3.97;1.90;;;;;;;;;;5044881;28;20056;-82
2022/01/30 09:29:44;;;;;;;5.97;1.48;;;;;;;;;;5049240;28;20029;-82
2022/01/30 09:32:11;;;;;;;5.22;1.40;;;;;;;;;;5046104;28;20026;-82
2022/01/30 09:34:37;;;;;;;4.15;1.25;;;;;;;;;;5055203;28;20415;-83
2022/01/30 09:37:07;;;;;;;4.80;1.63;;;;;;;;;;5044047;28;20037;-82
2022/01/30 09:39:33;;;;;;;4.72;1.42;;;;;;;;;;5030855;28;20132;-83
2022/01/30 09:41:59;;;;;;;4.30;1.40;;;;;;;;;;5023227;28;20030;-84
2022/01/30 09:44:25;;;;;;;4.43;1.80;;;;;;;;;;5031355;28;20021;-81
2022/01/30 09:46:51;;;;;;;5.00;1.60;;;;;;;;;;5059859;28;20032;-81
2022/01/30 09:49:22;;;;;;;3.53;1.17;;;;;;;;;;5063712;28;20029;-81
2022/01/30 09:51:48;;;;;;;3.67;1.05;;;;;;;;;;5038047;28;20019;-81
2022/01/30 09:54:14;;;;;;;3.25;1.23;;;;;;;;;;5048823;28;20507;-83
2022/01/30 09:56:40;;;;;;;5.85;2.05;;;;;;;;;;5047190;28;20123;-83
2022/01/30 09:59:07;;;;;;;4.10;1.25;;;;;;;;;;5064864;28;20376;-81
2022/01/30 10:01:34;;;;;;;4.60;1.45;;;;;;;;;;5061203;28;20049;-81
2022/01/30 10:04:02;;;;;;;5.22;1.45;;;;;;;;;;5049208;28;20025;-84
2022/01/30 10:06:34;;;;;;;4.00;1.10;;;;;;;;;;5065167;28;20025;-82
2022/01/30 10:09:09;;;;;;;4.55;1.05;;;;;;;;;;5063887;28;20013;-81
2022/01/30 10:12:00;;;;;;;4.05;1.27;;;;;;;;;;5047061;28;20025;-83
2022/01/30 10:14:26;;;;;;;4.10;1.10;;;;;;;;;;5044307;28;20030;-82
2022/01/30 10:16:52;;;;;;;6.90;1.10;;;;;;;;;;5046341;28;20067;-81
2022/01/30 10:19:21;;;;;;;3.20;1.10;;;;;;;;;;5055325;28;20029;-82
2022/01/30 10:21:49;;;;;;;5.28;1.67;;;;;;;;;;5045846;28;20032;-82
2022/01/30 10:24:22;;;;;;;3.60;1.20;;;;;;;;;;5026742;28;20034;-83
2022/01/30 10:27:02;;;;;;;5.10;1.42;;;;;;;;;;5047082;28;20029;-82
2022/01/30 10:29:29;;;;;;;7.88;1.73;;;;;;;;;;5037344;28;20026;-83
2022/01/30 10:32:06;;;;;;;3.13;1.00;;;;;;;;;;5055083;28;20037;-82
2022/01/30 10:34:36;;;;;;;5.00;2.47;;;;;;;;;;5037132;28;20510;-82
2022/01/30 10:37:16;;;;;;;3.30;1.15;;;;;;;;;;5045353;28;20033;-82
2022/01/30 10:40:03;;;;;;;4.10;1.20;;;;;;;;;;5030889;28;20040;-81
2022/01/30 10:42:30;;;;;;;7.80;1.50;;;;;;;;;;5046429;28;20025;-83
2022/01/30 10:44:56;;;;;;;3.88;1.42;;;;;;;;;;5063960;28;20021;-83
2022/01/30 10:47:23;;;;;;;4.32;1.20;;;;;;;;;;5046023;28;20032;-81
2022/01/30 10:52:56;;;;;;;5.75;1.30;;;;;;;;;;5060067;28;20033;-82
2022/01/30 10:55:35;;;;;;;2.65;0.93;;;;;;;;;;5061489;28;20052;-81
2022/01/30 10:58:01;;;;;;;2.95;1.00;;;;;;;;;;5058514;28;20029;-81
2022/01/30 11:00:40;;;;;;;6.55;1.60;;;;;;;;;;5063069;28;20025;-82
2022/01/30 11:03:06;;;;;;;3.50;1.33;;;;;;;;;;5046793;28;20033;-80
2022/01/30 11:05:51;;;;;;;4.22;1.63;;;;;;;;;;5057958;28;20076;-83
2022/01/30 11:08:24;;;;;;;5.53;1.35;;;;;;;;;;5043542;28;20021;-82
2022/01/30 11:11:01;;;;;;;4.10;1.35;;;;;;;;;;5050157;28;20017;-81
2022/01/30 11:19:16;;;;;;;4.80;1.10;;;;;;;;;;5044281;28;19916;-82
2022/01/30 11:21:43;;;;;;;6.38;1.40;;;;;;;;;;5057073;28;20111;-82
2022/01/30 11:24:13;;;;;;;6.40;1.77;;;;;;;;;;5061899;28;20559;-83
2022/01/30 11:26:39;;;;;;;5.10;1.92;;;;;;;;;;5045282;28;20089;-85
2022/01/30 11:29:12;;;;;;;4.05;1.48;;;;;;;;;;5045719;28;20036;-83
2022/01/30 11:31:38;;;;;;;6.13;2.03;;;;;;;;;;5044965;28;20021;-82
2022/01/30 11:34:05;;;;;;;4.10;1.55;;;;;;;;;;5044969;28;20021;-82
2022/01/30 11:36:35;;;;;;;5.32;2.22;;;;;;;;;;5045601;28;20028;-82
2022/01/30 11:39:01;;;;;;;5.85;1.38;;;;;;;;;;5044921;28;20110;-82
2022/01/30 11:41:31;;;;;;;5.07;1.38;;;;;;;;;;5062455;28;20059;-81
2022/01/30 11:44:29;;;;;;;4.35;1.13;;;;;;;;;;5045795;28;20116;-83
2022/01/30 11:46:58;;;;;;;4.97;1.40;;;;;;;;;;4982085;28;20122;-82
2022/01/30 11:52:46;;;;;;;4.18;1.00;;;;;;;;;;4982651;28;20034;-83
2022/01/30 11:55:31;;;;;;;4.25;1.25;;;;;;;;;;4965287;28;20034;-81
2022/01/30 12:01:04;;;;;;;3.78;1.27;;;;;;;;;;4974693;28;20062;-82
2022/01/30 12:03:32;;;;;;;6.05;1.40;;;;;;;;;;4978374;28;20043;-83
2022/01/30 12:06:18;;;;;;;4.80;1.83;;;;;;;;;;4960329;28;20026;-81
2022/01/30 12:08:46;;;;;;;4.93;1.67;;;;;;;;;;4960994;29;20064;-83
2022/01/30 12:11:30;;;;;;;4.45;1.63;;;;;;;;;;4964332;28;20019;-83
2022/01/30 12:13:56;;;;;;;4.47;1.52;;;;;;;;;;4981326;28;20082;-82
2022/01/30 12:16:43;;;;;;;4.13;1.45;;;;;;;;;;4976988;28;20051;-83
2022/01/30 12:19:11;;;;;;;5.25;1.63;;;;;;;;;;4970964;28;20038;-82
2022/01/30 12:21:37;;;;;;;3.58;1.17;;;;;;;;;;4974792;28;20031;-79
2022/01/30 12:24:32;;;;;;;6.15;1.50;;;;;;;;;;5042006;28;20024;-82
2022/01/30 12:27:02;;;;;;;8.80;1.77;;;;;;;;;;4982255;28;20039;-83
2022/01/30 12:29:38;;;;;;;3.40;0.95;;;;;;;;;;5002852;28;20105;-83
2022/01/30 12:32:22;;;;;;;4.50;1.33;;;;;;;;;;4995120;28;20035;-82
2022/01/30 12:34:57;;;;;;;4.65;1.42;;;;;;;;;;4985718;28;20081;-84
2022/01/30 12:37:25;;;;;;;5.93;1.40;;;;;;;;;;4976815;28;20555;-82
2022/01/30 12:39:52;;;;;;;6.68;1.73;;;;;;;;;;4985922;28;20037;-82
2022/01/30 12:42:19;;;;;;;3.92;1.30;;;;;;;;;;4974698;28;20102;-83
2022/01/30 12:44:45;;;;;;;5.22;1.30;;;;;;;;;;4981214;28;20042;-84
2022/01/30 12:47:13;;;;;;;5.68;1.70;;;;;;;;;;4983178;28;20084;-83
2022/01/30 12:49:53;;;;;;;6.20;2.35;;;;;;;;;;5000034;28;20038;-83
2022/01/30 12:52:29;;;;;;;4.75;1.40;;;;;;;;;;4995457;28;20022;-83
2022/01/30 12:55:00;;;;;;;4.50;1.33;;;;;;;;;;4963930;28;20469;-81
2022/01/30 12:57:27;;;;;;;5.18;1.58;;;;;;;;;;4984642;28;20047;-81
2022/01/30 12:59:54;;;;;;;6.32;1.42;;;;;;;;;;4965415;28;20038;-82
2022/01/30 13:02:20;;;;;;;4.82;2.03;;;;;;;;;;4990465;28;20413;-84
2022/01/30 13:04:47;;;;;;;6.07;1.80;;;;;;;;;;5026219;28;20060;-84
2022/01/30 13:07:13;;;;;;;5.05;1.60;;;;;;;;;;5023017;28;20026;-81
2022/01/30 13:09:40;;;;;;;5.40;1.58;;;;;;;;;;5041714;28;20101;-84
2022/01/30 13:12:13;;;;;;;5.43;1.98;;;;;;;;;;5023112;28;20025;-83
2022/01/30 13:14:42;;;;;;;6.65;1.42;;;;;;;;;;5037107;28;20448;-83
2022/01/30 13:17:10;;;;;;;6.28;1.52;;;;;;;;;;5040904;28;20040;-85
2022/01/30 13:19:37;;;;;;;5.70;1.42;;;;;;;;;;5023054;28;20060;-82
2022/01/30 13:22:05;;;;;;;6.47;1.55;;;;;;;;;;5010157;28;20056;-84
2022/01/30 13:24:31;;;;;;;5.50;1.60;;;;;;;;;;5025080;28;20018;-84
2022/01/30 13:27:01;;;;;;;3.53;1.23;;;;;;;;;;5005468;28;20018;-82
2022/01/30 13:29:30;;;;;;;6.50;1.50;;;;;;;;;;5023290;28;20093;-82
2022/01/30 13:31:57;;;;;;;6.30;1.60;;;;;;;;;;5031508;28;20021;-83
2022/01/30 13:34:23;;;;;;;3.85;1.13;;;;;;;;;;5041916;28;20173;-82
2022/01/30 13:36:54;;;;;;;4.43;1.10;;;;;;;;;;5007530;28;20089;-83
2022/01/30 13:39:27;;;;;;;3.13;1.10;;;;;;;;;;5040142;28;20056;-83
2022/01/30 13:42:03;;;;;;;;;;;;;;;;;;5011226;28;20092;-83
2022/01/30 13:44:39;;;;;;;6.05;1.70;;;;;;;;;;5045095;28;19951;-83
2022/01/30 13:47:08;;;;;;;3.85;1.45;;;;;;;;;;5044490;28;20053;-81
2022/01/30 13:49:43;;;;;;;3.88;0.95;;;;;;;;;;5027246;28;20171;-81
2022/01/30 13:52:10;;;;;;;4.10;1.33;;;;;;;;;;5025440;28;20033;-81
2022/01/30 13:54:39;;;;;;;4.40;1.25;;;;;;;;;;5020747;28;20033;-84
2022/01/30 13:57:09;;;;;;;3.72;1.17;;;;;;;;;;5037090;28;20030;-81
2022/01/30 13:59:36;;;;;;;4.80;1.33;;;;;;;;;;5023327;28;20082;-82
2022/01/30 14:02:03;;;;;;;4.40;1.33;;;;;;;;;;5005448;28;20467;-84
2022/01/30 14:04:32;;;;;;;4.93;1.90;;;;;;;;;;5017856;28;20025;-84
2022/01/30 14:07:00;;;;;;;6.47;1.30;;;;;;;;;;5019670;28;20083;-83
2022/01/30 14:09:42;;;;;;;4.60;1.10;;;;;;;;;;5005818;28;20021;-83
2022/01/30 14:12:09;;;;;;;5.82;1.60;;;;;;;;;;5018482;28;20045;-83
2022/01/30 14:14:38;;;;;;;3.22;1.02;;;;;;;;;;5007798;28;20037;-82
2022/01/30 14:17:07;;;;;;;4.45;1.30;;;;;;;;;;5022877;28;20033;-82
2022/01/30 14:19:49;;;;;;;4.68;1.20;;;;;;;;;;5040553;28;20045;-82
2022/01/30 14:22:20;;;;;;;4.28;1.35;;;;;;;;;;5011713;28;20030;-81
2022/01/30 14:24:55;;;;;;;4.20;1.50;;;;;;;;;;5010018;28;20037;-84
2022/01/30 14:27:22;;;;;;;4.90;1.50;;;;;;;;;;5008111;28;20033;-82
2022/01/30 14:30:03;;;;;;;4.78;1.33;;;;;;;;;;5004913;28;20404;-84
2022/01/30 14:32:31;;;;;;;6.03;2.58;;;;;;;;;;5015988;28;20018;-83
2022/01/30 14:34:57;;;;;;;5.43;2.20;;;;;;;;;;5036234;28;21655;-84
2022/01/30 14:37:23;;;;;;;5.57;1.70;;;;;;;;;;5011484;28;20063;-82
2022/01/30 14:39:56;;;;;;;4.28;1.42;;;;;;;;;;5032381;28;20436;-81
2022/01/30 14:42:22;;;;;;;3.88;1.10;;;;;;;;;;5043138;28;20094;-81
2022/01/30 14:44:48;;;;;;;5.10;1.60;;;;;;;;;;5026439;28;20118;-82
2022/01/30 14:47:14;;;;;;;5.15;1.40;;;;;;;;;;5009560;28;20143;-82
2022/01/30 14:49:41;;;;;;;5.13;1.58;;;;;;;;;;5026065;28;20380;-81
2022/01/30 14:52:14;;;;;;;4.47;1.20;;;;;;;;;;5033098;28;20171;-82
2022/01/30 14:54:40;;;;;;;5.22;1.33;;;;;;;;;;5013663;28;20608;-80
2022/01/30 14:57:07;;;;;;;3.22;1.00;;;;;;;;;;5011693;28;20022;-81
2022/01/30 14:59:33;;;;;;;4.43;1.38;;;;;;;;;;5010417;28;20396;-83
2022/01/30 15:01:59;;;;;;;5.05;1.58;;;;;;;;;;5024603;28;20048;-82
2022/01/30 15:04:35;;;;;;;4.43;1.30;;;;;;;;;;5035914;28;20039;-85
2022/01/30 15:07:09;;;;;;;6.43;1.73;;;;;;;;;;5030688;28;20124;-82
2022/01/30 15:09:37;;;;;;;5.65;1.80;;;;;;;;;;5058437;28;20108;-81
2022/01/30 15:12:03;;;;;;;7.47;2.33;;;;;;;;;;5042905;28;20025;-83
2022/01/30 15:14:36;;;;;;;4.30;1.02;;;;;;;;;;5046370;28;20039;-83
2022/01/30 15:17:07;;;;;;;5.35;2.50;;;;;;;;;;5039676;28;20036;-83
2022/01/30 15:19:34;;;;;;;5.03;1.35;;;;;;;;;;5044498;28;20040;-83
2022/01/30 15:22:06;;;;;;;4.30;1.23;;;;;;;;;;5045091;28;20025;-82
2022/01/30 15:24:36;;;;;;;4.78;1.75;;;;;;;;;;5051110;28;20029;-83
2022/01/30 15:27:03;;;;;;;4.45;1.00;;;;;;;;;;5030040;28;20466;-84
2022/01/30 15:29:29;;;;;;;6.03;1.80;;;;;;;;;;5044468;28;20045;-81
2022/01/30 15:31:55;;;;;;;7.35;1.52;;;;;;;;;;5071342;28;20025;-82
2022/01/30 15:34:22;;;;;;;8.43;1.83;;;;;;;;;;5051759;28;20523;-82
2022/01/30 15:36:48;;;;;;;4.45;1.33;;;;;;;;;;5029743;28;20029;-83
2022/01/30 15:39:19;;;;;;;6.47;2.53;;;;;;;;;;5031009;28;20033;-83
2022/01/30 15:41:51;;;;;;;6.00;2.35;;;;;;;;;;5027213;28;20026;-82
2022/01/30 15:44:18;;;;;;;3.57;1.40;;;;;;;;;;5045757;28;20033;-82
2022/01/30 15:49:37;;;;;;;3.95;1.30;;;;;;;;;;5058278;28;20040;-82
2022/01/30 15:52:03;;;;;;;4.20;1.50;;;;;;;;;;5052577;28;20445;-83
2022/01/30 15:54:33;;;;;;;7.65;3.50;;;;;;;;;;5038114;28;20026;-82
2022/01/30 15:57:04;;;;;;;6.30;1.35;;;;;;;;;;5038952;28;20029;-83
2022/01/30 15:59:30;;;;;;;4.40;1.30;;;;;;;;;;5063360;28;20059;-82
2022/01/30 16:01:57;;;;;;;4.88;1.50;;;;;;;;;;5057868;23;20087;-83